Yuma, AZ

4:49 PM MST on July 02, 2015 (GMT -0700)
APRSWXNET | | Change Station
CLOSE
Current Station
Personal Weather Station
Location: Yuma, AZ
Elevation: 125 ft
Nearby Weather Stations

Elev 125 ft 32.72 °N, 114.65 °W | Updated 19 minutes ago

Clear
Clear
105 °F
Feels Like 109 °F
N
5
Wind Variable Wind from SSW
Gusts 7.0 mph

Today
High -- | Low -- °F
--% Chance of Precip.
Yesterday
High -- | Low -- °F
Precip. -- in
5:34 AM 7:50 PM
Full, 99% visible
Pressure 29.75 in
Visibility 10.0 miles
Clouds Few 5000 ft
Heat Index 109 °F
Dew Point 64 °F
Humidity 27%
Rainfall in
Snow Depth Not available.
UV 6 out of 12
Pollen 5.10 out of 12
Air Quality Not available.
Flu Activity Not available.
METAR KNYL 022257Z COR VRB03KT 10SM FEW050 41/16 A2976 RMK AO2 SLP073 T04060156 $

More Conditions Fewer Conditions

Pressure 29.75 in
Visibility 10.0 miles
Clouds Few 5000 ft
Heat Index 109 °F
Dew Point 64 °F
Humidity 27%
Rainfall in
Snow Depth Not available.
UV 6 out of 12
Pollen 5.10 out of 12
Air Quality Not available.
Flu Activity Not available.
METAR KNYL 022257Z COR VRB03KT 10SM FEW050 41/16 A2976 RMK AO2 SLP073 T04060156 $

More Conditions Fewer Conditions

10-Day Weather Forecast

×

Almanac

Astronomy

Jul. 02, 2015 Rise Set
Actual Time
Civil Twilight
Nautical Twilight
Astronomical Twilight
Moon
Length of Visible Light
Length of Day
Tomorrow will be .
, % of the Moon is Illuminated

Today's Extremes

State Highs State Lows

Community

WunderPhotos

Upload Photos

1,834,569 photos uploaded!

WunderBlogs® & News

Nearby

Air Quality

  Air Quality AQ Index Pollutant
Not available.

Snow Depth

Station Depth Elevation

Earthquake Activity

City Distance Mag. Time & Date
Minimum magnitude displayed is 2.5.

Coastal Water Temperatures

Place Temperature

Stations

Nearby Weather Stations

Station Location Temp. Windchill Dew Point Humidity Wind Precip. Elev Updated Type